Time,TemperatureF,DewpointF,PressureIn,WindDirection,WindDirectionDegrees,WindSpeedMPH,WindSpeedGustMPH,Humidity,HourlyPrecipIn,Conditions,Clouds,dailyrainin,SoftwareType,DateUTC
2013-01-11 00:02:00,48.0,32.0,30.00,West,267,4.0,7.0,54,0.00,,,0.00,,2013-01-11 07:02:00,
2013-01-11 00:11:00,48.0,32.0,30.00,WSW,250,10.0,15.0,54,0.00,,,0.00,,2013-01-11 07:11:00,
2013-01-11 00:22:00,48.0,32.0,30.00,WSW,250,10.0,15.0,54,0.00,,,0.00,,2013-01-11 07:22:00,
2013-01-11 00:32:00,48.0,32.0,30.00,West,267,8.0,13.0,54,0.00,,,0.00,,2013-01-11 07:32:00,
2013-01-11 00:42:00,48.0,32.0,30.00,WSW,246,8.0,17.0,54,0.00,,,0.00,,2013-01-11 07:42:00,
2013-01-11 00:52:00,48.0,32.0,30.00,WSW,246,8.0,17.0,54,0.00,,,0.00,,2013-01-11 07:52:00,
2013-01-11 01:02:00,48.0,32.0,30.00,WSW,244,8.0,12.0,54,0.00,,,0.00,,2013-01-11 08:02:00,
2013-01-11 01:11:00,47.0,32.0,30.01,WSW,243,3.0,5.0,56,0.00,,,0.00,,2013-01-11 08:11:00,
2013-01-11 01:22:00,47.0,32.0,30.01,WSW,243,3.0,5.0,56,0.00,,,0.00,,2013-01-11 08:22:00,
2013-01-11 01:32:00,47.0,33.0,30.02,NNW,330,1.0,2.0,57,0.00,,,0.00,,2013-01-11 08:32:00,
2013-01-11 01:42:00,47.0,33.0,30.02,NNW,330,1.0,2.0,57,0.00,,,0.00,,2013-01-11 08:42:00,
2013-01-11 01:52:00,46.0,32.0,30.03,WSW,245,2.0,6.0,58,0.00,,,0.00,,2013-01-11 08:52:00,
2013-01-11 02:02:00,46.0,33.0,30.03,NW,310,3.0,4.0,60,0.00,,,0.00,,2013-01-11 09:02:00,
2013-01-11 02:11:00,46.0,33.0,30.03,NW,310,3.0,4.0,60,0.00,,,0.00,,2013-01-11 09:11:00,
2013-01-11 02:22:00,46.0,33.0,30.03,WSW,238,4.0,7.0,61,0.00,,,0.00,,2013-01-11 09:22:00,
2013-01-11 02:32:00,45.0,32.0,30.03,WSW,247,1.0,3.0,61,0.00,,,0.00,,2013-01-11 09:32:00,
2013-01-11 02:42:00,45.0,32.0,30.03,WSW,247,1.0,3.0,61,0.00,,,0.00,,2013-01-11 09:42:00,
2013-01-11 02:52:00,45.0,32.0,30.03,West,266,4.0,9.0,60,0.00,,,0.00,,2013-01-11 09:52:00,
2013-01-11 03:02:00,45.0,31.0,30.04,WNW,287,4.0,6.0,57,0.00,,,0.00,,2013-01-11 10:02:00,
2013-01-11 03:11:00,45.0,31.0,30.04,WNW,287,4.0,6.0,57,0.00,,,0.00,,2013-01-11 10:11:00,
2013-01-11 03:22:00,45.0,29.0,30.05,West,271,6.0,8.0,54,0.00,,,0.00,,2013-01-11 10:22:00,
2013-01-11 03:32:00,45.0,29.0,30.05,West,266,5.0,6.0,53,0.00,,,0.00,,2013-01-11 10:32:00,
2013-01-11 03:42:00,45.0,29.0,30.05,West,266,5.0,6.0,53,0.00,,,0.00,,2013-01-11 10:42:00,
2013-01-11 03:52:00,45.0,27.0,30.05,West,261,7.0,9.0,50,0.00,,,0.00,,2013-01-11 10:52:00,
2013-01-11 04:02:00,45.0,27.0,30.06,West,278,5.0,9.0,49,0.00,,,0.00,,2013-01-11 11:02:00,
2013-01-11 04:11:00,45.0,27.0,30.06,West,278,5.0,9.0,49,0.00,,,0.00,,2013-01-11 11:11:00,
2013-01-11 04:22:00,45.0,27.0,30.06,WNW,301,2.0,4.0,48,0.00,,,0.00,,2013-01-11 11:22:00,
2013-01-11 04:32:00,44.0,26.0,30.06,NNW,337,2.0,3.0,48,0.00,,,0.00,,2013-01-11 11:32:00,
2013-01-11 04:42:00,44.0,26.0,30.06,NNW,337,2.0,3.0,48,0.00,,,0.00,,2013-01-11 11:42:00,
2013-01-11 04:53:00,44.0,25.0,30.07,West,280,3.0,6.0,47,0.00,,,0.00,,2013-01-11 11:53:00,
2013-01-11 05:02:00,44.0,25.0,30.06,WSW,251,3.0,5.0,46,0.00,,,0.00,,2013-01-11 12:02:00,
2013-01-11 05:12:00,44.0,25.0,30.06,WSW,251,3.0,5.0,46,0.00,,,0.00,,2013-01-11 12:12:00,
2013-01-11 05:22:00,44.0,24.0,30.06,WNW,285,4.0,7.0,45,0.00,,,0.00,,2013-01-11 12:22:00,
2013-01-11 05:32:00,45.0,25.0,30.07,WNW,298,3.0,5.0,45,0.00,,,0.00,,2013-01-11 12:32:00,
2013-01-11 05:42:00,45.0,25.0,30.07,WNW,298,3.0,5.0,45,0.00,,,0.00,,2013-01-11 12:42:00,
2013-01-11 05:52:00,44.0,25.0,30.07,NW,304,1.0,3.0,46,0.00,,,0.00,,2013-01-11 12:52:00,
2013-01-11 06:02:00,43.0,24.0,30.07,West,279,2.0,3.0,47,0.00,,,0.00,,2013-01-11 13:02:00,
2013-01-11 06:12:00,43.0,24.0,30.07,West,279,2.0,3.0,47,0.00,,,0.00,,2013-01-11 13:12:00,
2013-01-11 06:22:00,45.0,25.0,30.08,WNW,289,0.0,0.0,45,0.00,,,0.00,,2013-01-11 13:22:00,
2013-01-11 06:32:00,44.0,25.0,30.09,SSW,210,1.0,2.0,47,0.00,,,0.00,,2013-01-11 13:32:00,
2013-01-11 06:42:00,44.0,25.0,30.09,SSW,210,1.0,2.0,47,0.00,,,0.00,,2013-01-11 13:42:00,
2013-01-11 06:52:00,42.0,25.0,30.09,WNW,293,1.0,2.0,50,0.00,,,0.00,,2013-01-11 13:52:00,
2013-01-11 07:02:00,41.0,24.0,30.09,NW,309,2.0,3.0,50,0.00,,,0.00,,2013-01-11 14:02:00,
2013-01-11 07:11:00,41.0,24.0,30.09,NW,309,2.0,3.0,50,0.00,,,0.00,,2013-01-11 14:11:00,
2013-01-11 07:22:00,41.0,24.0,30.10,ENE,57,0.0,1.0,51,0.00,,,0.00,,2013-01-11 14:22:00,
2013-01-11 07:32:00,41.0,25.0,30.10,NNE,19,1.0,3.0,52,0.00,,,0.00,,2013-01-11 14:32:00,
2013-01-11 07:42:00,40.0,24.0,30.11,NNW,331,0.0,1.0,53,0.00,,,0.00,,2013-01-11 14:42:00,
2013-01-11 07:53:00,40.0,24.0,30.11,NNW,331,0.0,1.0,53,0.00,,,0.00,,2013-01-11 14:53:00,
2013-01-11 08:02:00,40.0,25.0,30.11,ENE,76,0.0,0.0,54,0.00,,,0.00,,2013-01-11 15:02:00,
2013-01-11 08:12:00,40.0,26.0,30.12,ENE,76,0.0,1.0,56,0.00,,,0.00,,2013-01-11 15:12:00,
2013-01-11 08:22:00,40.0,26.0,30.12,ENE,76,0.0,1.0,56,0.00,,,0.00,,2013-01-11 15:22:00,
2013-01-11 08:32:00,42.0,29.0,30.12,ENE,75,0.0,1.0,59,0.00,,,0.00,,2013-01-11 15:32:00,
2013-01-11 08:42:00,42.0,29.0,30.12,ENE,75,0.0,1.0,59,0.00,,,0.00,,2013-01-11 15:42:00,
2013-01-11 08:53:00,42.0,27.0,30.13,ENE,73,0.0,0.0,55,0.00,,,0.00,,2013-01-11 15:53:00,
2013-01-11 09:02:00,45.0,32.0,30.14,ENE,73,0.0,0.0,60,0.00,,,0.00,,2013-01-11 16:02:00,
2013-01-11 09:12:00,52.0,31.0,30.14,SE,134,0.0,1.0,45,0.00,,,0.00,,2013-01-11 16:12:00,
2013-01-11 09:32:00,52.0,28.0,30.15,NE,40,0.0,1.0,40,0.00,,,0.00,,2013-01-11 16:32:00,
2013-01-11 10:02:00,53.0,31.0,30.16,NE,48,0.0,1.0,42,0.00,,,0.00,,2013-01-11 17:02:00,
2013-01-11 10:12:00,56.0,31.0,30.16,SW,222,3.0,4.0,38,0.00,,,0.00,,2013-01-11 17:12:00,
2013-01-11 10:22:00,56.0,31.0,30.16,SW,222,3.0,4.0,38,0.00,,,0.00,,2013-01-11 17:22:00,
2013-01-11 10:32:00,57.0,30.0,30.16,SW,226,0.0,1.0,36,0.00,,,0.00,,2013-01-11 17:32:00,
2013-01-11 10:53:00,60.0,32.0,30.16,West,273,2.0,3.0,34,0.00,,,0.00,,2013-01-11 17:53:00,
2013-01-11 11:02:00,60.0,29.0,30.16,NW,315,1.0,3.0,31,0.00,,,0.00,,2013-01-11 18:02:00,
2013-01-11 11:22:00,57.0,26.0,30.16,NW,325,5.0,6.0,30,0.00,,,0.00,,2013-01-11 18:22:00,
2013-01-11 11:32:00,56.0,24.0,30.15,NNW,331,6.0,7.0,29,0.00,,,0.00,,2013-01-11 18:32:00,
2013-01-11 11:42:00,56.0,24.0,30.15,NNW,331,6.0,7.0,29,0.00,,,0.00,,2013-01-11 18:42:00,
2013-01-11 11:53:00,56.0,23.0,30.14,North,354,5.0,7.0,28,0.00,,,0.00,,2013-01-11 18:53:00,
2013-01-11 12:02:00,56.0,21.0,30.14,NNW,336,8.0,9.0,25,0.00,,,0.00,,2013-01-11 19:02:00,
2013-01-11 12:12:00,56.0,21.0,30.14,NNW,336,8.0,9.0,25,0.00,,,0.00,,2013-01-11 19:12:00,
2013-01-11 12:22:00,57.0,22.0,30.13,NNE,16,7.0,8.0,25,0.00,,,0.00,,2013-01-11 19:22:00,
2013-01-11 12:32:00,57.0,22.0,30.12,NE,40,2.0,3.0,25,0.00,,,0.00,,2013-01-11 19:32:00,
2013-01-11 12:42:00,57.0,22.0,30.12,NE,40,2.0,3.0,25,0.00,,,0.00,,2013-01-11 19:42:00,
2013-01-11 12:53:00,58.0,20.0,30.11,WSW,241,5.0,6.0,23,0.00,,,0.00,,2013-01-11 19:53:00,
2013-01-11 13:02:00,60.0,21.0,30.10,WNW,295,2.0,5.0,22,0.00,,,0.00,,2013-01-11 20:02:00,
2013-01-11 13:11:00,60.0,21.0,30.10,WNW,295,2.0,5.0,22,0.00,,,0.00,,2013-01-11 20:11:00,
2013-01-11 13:22:00,60.0,21.0,30.09,West,274,3.0,7.0,22,0.00,,,0.00,,2013-01-11 20:22:00,
2013-01-11 13:32:00,60.0,22.0,30.08,West,279,7.0,8.0,23,0.00,,,0.00,,2013-01-11 20:32:00,
2013-01-11 13:42:00,60.0,22.0,30.08,West,279,7.0,8.0,23,0.00,,,0.00,,2013-01-11 20:42:00,
2013-01-11 13:53:00,61.0,23.0,30.07,NNW,329,1.0,1.0,23,0.00,,,0.00,,2013-01-11 20:53:00,
2013-01-11 14:02:00,61.0,22.0,30.07,WSW,251,4.0,7.0,22,0.00,,,0.00,,2013-01-11 21:02:00,
2013-01-11 14:12:00,61.0,22.0,30.06,WNW,291,1.0,5.0,22,0.00,,,0.00,,2013-01-11 21:12:00,
2013-01-11 14:22:00,61.0,22.0,30.06,WNW,291,1.0,5.0,22,0.00,,,0.00,,2013-01-11 21:22:00,
2013-01-11 14:32:00,60.0,21.0,30.06,WNW,289,2.0,6.0,22,0.00,,,0.00,,2013-01-11 21:32:00,
2013-01-11 14:42:00,60.0,21.0,30.06,WNW,289,2.0,6.0,22,0.00,,,0.00,,2013-01-11 21:42:00,
2013-01-11 14:53:00,58.0,21.0,30.06,NE,47,0.0,1.0,24,0.00,,,0.00,,2013-01-11 21:53:00,
2013-01-11 15:02:00,58.0,21.0,30.06,West,265,2.0,5.0,24,0.00,,,0.00,,2013-01-11 22:02:00,
2013-01-11 15:12:00,59.0,20.0,30.06,WNW,282,5.0,5.0,22,0.00,,,0.00,,2013-01-11 22:12:00,
2013-01-11 15:22:00,59.0,20.0,30.06,WNW,282,5.0,5.0,22,0.00,,,0.00,,2013-01-11 22:22:00,
2013-01-11 15:32:00,59.0,20.0,30.05,West,264,8.0,12.0,22,0.00,,,0.00,,2013-01-11 22:32:00,
2013-01-11 15:42:00,59.0,20.0,30.05,West,264,8.0,12.0,22,0.00,,,0.00,,2013-01-11 22:42:00,
2013-01-11 15:52:00,60.0,22.0,30.05,SSW,203,3.0,5.0,23,0.00,,,0.00,,2013-01-11 22:52:00,
2013-01-11 16:02:00,60.0,22.0,30.05,SW,217,5.0,7.0,23,0.00,,,0.00,,2013-01-11 23:02:00,
2013-01-11 16:12:00,60.0,22.0,30.05,SW,217,5.0,7.0,23,0.00,,,0.00,,2013-01-11 23:12:00,
2013-01-11 16:22:00,60.0,21.0,30.05,WSW,245,3.0,4.0,22,0.00,,,0.00,,2013-01-11 23:22:00,
2013-01-11 16:32:00,60.0,20.0,30.05,WSW,255,5.0,6.0,21,0.00,,,0.00,,2013-01-11 23:32:00,
2013-01-11 16:42:00,60.0,20.0,30.05,WSW,255,5.0,6.0,21,0.00,,,0.00,,2013-01-11 23:42:00,
2013-01-11 16:53:00,59.0,20.0,30.04,SW,218,5.0,9.0,22,0.00,,,0.00,,2013-01-11 23:53:00,
2013-01-11 17:02:00,59.0,21.0,30.04,SW,219,3.0,6.0,23,0.00,,,0.00,,2013-01-12 00:02:00,
2013-01-11 17:12:00,60.0,18.0,30.04,WSW,248,5.0,6.0,19,0.00,,,0.00,,2013-01-12 00:12:00,
2013-01-11 17:22:00,60.0,18.0,30.04,WSW,248,5.0,6.0,19,0.00,,,0.00,,2013-01-12 00:22:00,
2013-01-11 17:32:00,57.0,17.0,30.04,WSW,239,4.0,7.0,21,0.00,,,0.00,,2013-01-12 00:32:00,
2013-01-11 17:42:00,57.0,17.0,30.04,WSW,239,4.0,7.0,21,0.00,,,0.00,,2013-01-12 00:42:00,
2013-01-11 17:52:00,55.0,19.0,30.03,West,260,1.0,2.0,24,0.00,,,0.00,,2013-01-12 00:52:00,
2013-01-11 18:02:00,54.0,18.0,30.03,West,268,2.0,3.0,24,0.00,,,0.00,,2013-01-12 01:02:00,
2013-01-11 18:12:00,54.0,18.0,30.03,West,268,2.0,3.0,24,0.00,,,0.00,,2013-01-12 01:12:00,
2013-01-11 18:22:00,53.0,20.0,30.03,WSW,247,0.0,1.0,27,0.00,,,0.00,,2013-01-12 01:22:00,
2013-01-11 18:32:00,52.0,21.0,30.04,WSW,237,1.0,2.0,29,0.00,,,0.00,,2013-01-12 01:32:00,
2013-01-11 18:42:00,52.0,21.0,30.04,WSW,237,1.0,2.0,29,0.00,,,0.00,,2013-01-12 01:42:00,
2013-01-11 18:52:00,50.0,21.0,30.03,SW,236,2.0,2.0,31,0.00,,,0.00,,2013-01-12 01:52:00,
2013-01-11 19:02:00,49.0,21.0,30.03,SW,236,1.0,2.0,33,0.00,,,0.00,,2013-01-12 02:02:00,
2013-01-11 19:11:00,49.0,21.0,30.03,SW,236,1.0,2.0,33,0.00,,,0.00,,2013-01-12 02:11:00,
2013-01-11 19:22:00,48.0,22.0,30.03,SW,236,0.0,0.0,35,0.00,,,0.00,,2013-01-12 02:22:00,
2013-01-11 19:32:00,48.0,26.0,30.03,SW,236,0.0,0.0,42,0.00,,,0.00,,2013-01-12 02:32:00,
2013-01-11 19:53:00,52.0,27.0,30.03,SW,236,0.0,0.0,37,0.00,,,0.00,,2013-01-12 02:53:00,
2013-01-11 20:02:00,53.0,24.0,30.03,SW,236,0.0,0.0,32,0.00,,,0.00,,2013-01-12 03:02:00,
2013-01-11 20:11:00,53.0,24.0,30.03,SW,236,0.0,0.0,32,0.00,,,0.00,,2013-01-12 03:11:00,
2013-01-11 20:22:00,48.0,23.0,30.03,WSW,237,0.0,0.0,37,0.00,,,0.00,,2013-01-12 03:22:00,
2013-01-11 20:32:00,47.0,24.0,30.03,WSW,237,0.0,0.0,40,0.00,,,0.00,,2013-01-12 03:32:00,
2013-01-11 20:42:00,47.0,24.0,30.03,WSW,237,0.0,0.0,40,0.00,,,0.00,,2013-01-12 03:42:00,
2013-01-11 20:53:00,45.0,24.0,30.03,WSW,237,0.0,0.0,43,0.00,,,0.00,,2013-01-12 03:53:00,
2013-01-11 21:02:00,44.0,23.0,30.03,NNW,348,2.0,2.0,44,0.00,,,0.00,,2013-01-12 04:02:00,
2013-01-11 21:11:00,44.0,23.0,30.03,NNW,348,2.0,2.0,44,0.00,,,0.00,,2013-01-12 04:11:00,
2013-01-11 21:22:00,45.0,24.0,30.03,North,4,2.0,3.0,43,0.00,,,0.00,,2013-01-12 04:22:00,
2013-01-11 21:32:00,44.0,23.0,30.04,NE,47,2.0,2.0,44,0.00,,,0.00,,2013-01-12 04:32:00,
2013-01-11 21:42:00,44.0,23.0,30.04,NE,47,2.0,2.0,44,0.00,,,0.00,,2013-01-12 04:42:00,
2013-01-11 21:52:00,42.0,23.0,30.04,NE,41,0.0,1.0,46,0.00,,,0.00,,2013-01-12 04:52:00,
2013-01-11 22:03:00,42.0,23.0,30.05,NNW,331,0.0,1.0,47,0.00,,,0.00,,2013-01-12 05:03:00,
2013-01-11 22:12:00,42.0,23.0,30.05,NNW,331,0.0,1.0,47,0.00,,,0.00,,2013-01-12 05:12:00,
2013-01-11 22:22:00,41.0,23.0,30.05,SW,218,4.0,5.0,49,0.00,,,0.00,,2013-01-12 05:22:00,
2013-01-11 22:32:00,41.0,24.0,30.05,SW,220,0.0,1.0,50,0.00,,,0.00,,2013-01-12 05:32:00,
2013-01-11 22:42:00,41.0,24.0,30.05,SW,220,0.0,1.0,50,0.00,,,0.00,,2013-01-12 05:42:00,
2013-01-11 22:52:00,40.0,23.0,30.06,West,272,0.0,1.0,50,0.00,,,0.00,,2013-01-12 05:52:00,
2013-01-11 23:02:00,40.0,23.0,30.06,NE,50,1.0,2.0,50,0.00,,,0.00,,2013-01-12 06:02:00,
2013-01-11 23:12:00,40.0,23.0,30.06,NE,50,1.0,2.0,50,0.00,,,0.00,,2013-01-12 06:12:00,
2013-01-11 23:22:00,39.0,23.0,30.06,South,172,0.0,0.0,52,0.00,,,0.00,,2013-01-12 06:22:00,
2013-01-11 23:32:00,39.0,23.0,30.06,South,172,0.0,0.0,53,0.00,,,0.00,,2013-01-12 06:32:00,
2013-01-11 23:42:00,39.0,23.0,30.06,South,172,0.0,0.0,53,0.00,,,0.00,,2013-01-12 06:42:00,
2013-01-11 23:52:00,38.0,22.0,30.06,South,189,1.0,2.0,53,0.00,,,0.00,,2013-01-12 06:52:00,